Time;durP1;ratioP1;P1;durP2;ratioP2;P2;SDS_P1;SDS_P2;PMS_P1;PMS_P2;Temp;Humidity;BMP_temperature;BMP_pressure;BME280_temperature;BME280_humidity;BME280_pressure;Samples;Min_cycle;Max_cycle;Signal;HPM_P1;HPM_P2
2024/01/16 00:04:29;;;;;;;4.72;2.70;;;20.10;45.70;;;;;;10288477;28;20042;-63
2024/01/16 00:09:33;;;;;;;4.30;3.25;;;20.20;45.80;;;;;;10288767;28;20097;-62
2024/01/16 00:14:36;;;;;;;5.68;3.53;;;20.20;45.80;;;;;;10288250;28;20073;-63
2024/01/16 00:19:40;;;;;;;5.38;3.55;;;20.30;45.70;;;;;;10288561;28;20074;-63
2024/01/16 00:24:42;;;;;;;6.55;4.10;;;20.20;45.90;;;;;;10287367;28;20101;-63
2024/01/16 00:29:43;;;;;;;5.72;4.50;;;20.10;45.80;;;;;;10287746;28;20062;-63
2024/01/16 00:34:46;;;;;;;6.78;4.80;;;20.20;45.80;;;;;;10287993;28;20450;-63
2024/01/16 00:39:48;;;;;;;6.15;4.38;;;20.00;46.10;;;;;;10289581;28;20051;-63
2024/01/16 00:44:50;;;;;;;7.25;5.30;;;20.10;45.80;;;;;;10288059;28;20136;-63
2024/01/16 00:49:53;;;;;;;6.13;4.95;;;20.10;46.00;;;;;;10283173;28;20074;-63
2024/01/16 00:54:55;;;;;;;6.90;5.25;;;20.10;45.90;;;;;;10286847;28;20074;-63
2024/01/16 00:59:57;;;;;;;6.85;5.35;;;20.00;46.10;;;;;;10286825;28;20081;-63
2024/01/16 01:05:00;;;;;;;6.13;5.20;;;20.00;46.20;;;;;;10287586;28;20047;-63
2024/01/16 01:10:02;;;;;;;8.02;5.00;;;20.10;45.80;;;;;;10299578;28;20106;-63
2024/01/16 01:15:04;;;;;;;6.78;5.40;;;20.10;45.90;;;;;;10317936;28;20050;-63
2024/01/16 01:20:12;;;;;;;6.32;5.22;;;20.00;46.00;;;;;;10327395;28;20061;-63
2024/01/16 01:25:14;;;;;;;6.25;4.72;;;20.00;45.90;;;;;;10326966;28;20042;-63
2024/01/16 01:30:15;;;;;;;6.82;5.45;;;19.90;45.90;;;;;;10326781;28;20080;-63
2024/01/16 01:35:20;;;;;;;5.82;4.72;;;19.90;46.10;;;;;;10316878;28;20071;-62
2024/01/16 01:40:21;;;;;;;5.68;4.88;;;19.90;46.00;;;;;;10290558;28;20729;-63
2024/01/16 01:45:23;;;;;;;6.68;5.13;;;19.90;45.70;;;;;;10265535;28;20074;-63
2024/01/16 01:50:26;;;;;;;6.88;5.47;;;19.90;45.70;;;;;;10285363;28;20093;-63
2024/01/16 01:55:28;;;;;;;5.93;5.18;;;19.80;46.00;;;;;;10287678;28;20039;-63
2024/01/16 02:00:30;;;;;;;6.15;4.90;;;19.80;45.80;;;;;;10286924;28;20050;-63
2024/01/16 02:05:33;;;;;;;5.72;4.90;;;19.80;45.80;;;;;;10284059;28;20081;-62
2024/01/16 02:10:35;;;;;;;5.18;4.25;;;20.00;45.60;;;;;;10292919;28;20071;-63
2024/01/16 02:15:39;;;;;;;5.30;4.68;;;19.90;45.30;;;;;;10292756;28;20070;-63
2024/01/16 02:20:42;;;;;;;5.95;4.50;;;19.70;45.50;;;;;;10292989;28;21858;-63
2024/01/16 02:25:45;;;;;;;6.43;4.63;;;19.80;45.60;;;;;;10289847;28;20414;-62
2024/01/16 02:30:47;;;;;;;5.72;4.60;;;19.70;45.60;;;;;;10301162;28;20113;-63
2024/01/16 02:35:48;;;;;;;5.05;4.30;;;19.70;45.70;;;;;;10300958;28;20047;-63
2024/01/16 02:40:51;;;;;;;5.20;4.35;;;19.70;45.50;;;;;;10283577;28;20113;-63
2024/01/16 02:45:54;;;;;;;4.60;4.10;;;19.70;45.50;;;;;;10287714;28;20078;-63
2024/01/16 02:50:56;;;;;;;4.63;3.83;;;19.70;45.50;;;;;;10292114;28;20046;-63
2024/01/16 02:55:59;;;;;;;5.25;4.47;;;19.60;45.60;;;;;;10293232;28;20423;-63
2024/01/16 03:01:02;;;;;;;6.00;4.35;;;19.70;45.40;;;;;;10292822;28;20047;-63
2024/01/16 03:06:04;;;;;;;4.45;4.00;;;19.70;45.30;;;;;;10290517;28;20047;-63
2024/01/16 03:11:07;;;;;;;4.38;3.97;;;19.60;45.30;;;;;;10290680;28;20078;-63
2024/01/16 03:16:09;;;;;;;5.20;4.20;;;19.70;45.30;;;;;;10285260;28;20074;-62
2024/01/16 03:21:11;;;;;;;4.00;3.60;;;19.60;45.30;;;;;;10290019;28;20051;-63
2024/01/16 03:26:16;;;;;;;4.25;3.63;;;19.50;45.30;;;;;;10287602;28;20047;-63
2024/01/16 03:31:21;;;;;;;4.88;3.95;;;19.50;45.40;;;;;;10289656;28;20466;-63
2024/01/16 03:36:23;;;;;;;4.00;3.60;;;19.50;45.20;;;;;;10289663;28;20053;-63
2024/01/16 03:41:26;;;;;;;4.13;3.72;;;19.40;45.50;;;;;;10289204;28;20462;-63
2024/01/16 03:46:27;;;;;;;4.78;4.00;;;19.60;45.30;;;;;;10289386;28;20081;-63
2024/01/16 03:51:29;;;;;;;4.00;3.42;;;19.60;45.10;;;;;;10288692;28;20085;-63
2024/01/16 03:56:32;;;;;;;3.83;3.40;;;19.50;45.10;;;;;;10279004;28;20560;-63
2024/01/16 04:01:36;;;;;;;4.00;3.60;;;19.40;45.20;;;;;;10291573;28;20070;-63
2024/01/16 04:06:37;;;;;;;3.50;3.20;;;19.60;44.90;;;;;;10288457;28;20082;-63
2024/01/16 04:11:40;;;;;;;4.07;3.30;;;20.50;43.20;;;;;;10288444;28;20125;-63
2024/01/16 04:16:43;;;;;;;3.80;3.30;;;20.80;42.60;;;;;;10283284;28;20051;-63
2024/01/16 04:21:44;;;;;;;3.83;3.28;;;21.10;42.10;;;;;;10277436;28;20454;-63
2024/01/16 04:26:47;;;;;;;4.38;3.47;;;21.50;42.10;;;;;;10290680;28;20073;-63
2024/01/16 04:31:49;;;;;;;4.93;4.28;;;21.90;41.50;;;;;;10288528;28;20654;-63
2024/01/16 04:36:51;;;;;;;5.90;4.57;;;22.10;41.40;;;;;;10287693;28;20597;-63
2024/01/16 04:41:54;;;;;;;5.80;4.72;;;22.30;41.40;;;;;;10287433;28;20536;-62
2024/01/16 04:46:55;;;;;;;6.15;5.20;;;22.40;41.10;;;;;;10287768;28;20051;-63
2024/01/16 04:51:57;;;;;;;5.90;5.28;;;22.50;40.80;;;;;;10287809;28;20089;-63
2024/01/16 04:57:00;;;;;;;6.53;5.75;;;22.70;40.70;;;;;;10288221;28;20043;-63
2024/01/16 05:02:03;;;;;;;7.13;6.43;;;22.70;40.70;;;;;;10299509;28;20054;-63
2024/01/16 05:07:05;;;;;;;7.25;6.55;;;22.70;40.80;;;;;;10287808;28;20054;-63
2024/01/16 05:12:08;;;;;;;12.30;8.23;;;22.80;41.20;;;;;;10281935;28;20055;-63
2024/01/16 05:17:10;;;;;;;10.38;8.18;;;22.70;40.80;;;;;;10287748;28;20117;-63
2024/01/16 05:22:12;;;;;;;11.73;8.82;;;22.70;40.80;;;;;;10287093;28;20078;-63
2024/01/16 05:27:16;;;;;;;11.60;10.25;;;22.90;40.80;;;;;;10287573;28;20082;-63
2024/01/16 05:32:17;;;;;;;12.15;10.85;;;23.00;40.70;;;;;;10286502;28;20051;-63
2024/01/16 05:37:20;;;;;;;13.35;11.95;;;23.20;40.70;;;;;;10289063;28;20046;-63
2024/01/16 05:42:23;;;;;;;14.73;12.05;;;23.30;40.40;;;;;;10301336;28;20043;-63
2024/01/16 05:47:27;;;;;;;14.52;12.10;;;23.40;40.50;;;;;;10295007;28;20074;-62
2024/01/16 05:52:29;;;;;;;14.88;11.80;;;23.30;40.50;;;;;;10286694;28;20053;-62
2024/01/16 05:57:33;;;;;;;20.95;12.27;;;23.30;40.50;;;;;;10286909;28;20063;-62
2024/01/16 06:02:35;;;;;;;14.57;12.30;;;23.30;40.50;;;;;;10296564;28;20054;-63
2024/01/16 06:07:36;;;;;;;14.43;12.13;;;22.90;41.40;;;;;;10290499;28;20051;-63
2024/01/16 06:12:39;;;;;;;13.35;11.60;;;22.50;42.10;;;;;;10289483;28;20070;-63
2024/01/16 06:17:41;;;;;;;11.77;10.50;;;22.50;42.40;;;;;;10291634;28;20082;-63
2024/01/16 06:22:43;;;;;;;12.23;10.00;;;22.50;42.10;;;;;;10293014;28;20047;-63
2024/01/16 06:27:46;;;;;;;13.10;10.95;;;22.70;41.70;;;;;;10288930;28;20113;-63
2024/01/16 06:32:48;;;;;;;13.48;10.20;;;22.60;41.70;;;;;;10292605;28;20074;-63
2024/01/16 06:37:50;;;;;;;11.32;9.75;;;22.50;41.70;;;;;;10292149;28;20047;-62
2024/01/16 06:42:53;;;;;;;12.15;9.73;;;22.40;42.20;;;;;;10291296;28;20109;-63
2024/01/16 06:47:54;;;;;;;14.85;9.57;;;22.50;42.80;;;;;;10272926;28;20077;-64
2024/01/16 06:52:56;;;;;;;11.02;9.10;;;22.40;42.40;;;;;;10268776;28;20482;-64
2024/01/16 06:57:59;;;;;;;13.65;9.75;;;22.40;42.30;;;;;;10264732;28;20070;-64
2024/01/16 07:03:01;;;;;;;11.27;8.45;;;22.20;42.70;;;;;;10262385;28;20097;-65
2024/01/16 07:08:02;;;;;;;11.73;9.18;;;22.10;42.90;;;;;;10271006;28;20079;-64
2024/01/16 07:13:07;;;;;;;10.82;8.75;;;22.00;43.30;;;;;;10273095;28;20526;-62
2024/01/16 07:18:09;;;;;;;17.00;9.00;;;22.70;42.30;;;;;;10268615;28;20062;-63
2024/01/16 07:23:10;;;;;;;14.10;8.32;;;22.90;43.50;;;;;;10288760;28;20054;-64
2024/01/16 07:28:14;;;;;;;11.25;7.47;;;23.00;44.10;;;;;;10290803;28;20081;-61
2024/01/16 07:33:16;;;;;;;17.10;8.23;;;23.10;44.00;;;;;;10290609;28;20082;-63
2024/01/16 07:38:18;;;;;;;11.63;7.43;;;23.30;43.80;;;;;;10307604;28;20139;-63
2024/01/16 07:43:21;;;;;;;8.68;6.40;;;23.40;43.40;;;;;;10306993;28;20046;-62
2024/01/16 07:48:23;;;;;;;9.65;6.20;;;23.50;42.70;;;;;;10284737;28;20054;-63
2024/01/16 07:53:27;;;;;;;10.15;7.55;;;23.50;42.80;;;;;;10281001;28;20047;-64
2024/01/16 07:58:30;;;;;;;14.80;9.00;;;23.60;42.50;;;;;;10289027;28;20130;-63
2024/01/16 08:03:32;;;;;;;15.65;9.88;;;23.30;43.10;;;;;;10290373;28;20078;-61
2024/01/16 08:08:34;;;;;;;12.82;8.68;;;23.10;43.10;;;;;;10290223;28;20070;-62
2024/01/16 08:13:37;;;;;;;14.70;9.45;;;23.20;43.30;;;;;;10290065;28;20047;-63
2024/01/16 08:18:39;;;;;;;13.18;9.15;;;23.50;43.40;;;;;;10289590;28;20070;-63
2024/01/16 08:23:40;;;;;;;13.85;8.93;;;23.80;43.20;;;;;;10317072;22;20096;-63
2024/01/16 08:28:43;;;;;;;33.00;19.55;;;24.10;42.90;;;;;;10334959;28;20128;-61
2024/01/16 08:33:45;;;;;;;38.67;18.88;;;24.20;42.20;;;;;;10324738;28;20085;-61
2024/01/16 08:38:47;;;;;;;31.88;20.25;;;24.00;42.60;;;;;;10344080;28;20571;-56
2024/01/16 08:43:50;;;;;;;33.42;21.55;;;24.20;42.10;;;;;;10343616;28;20156;-63
2024/01/16 08:48:52;;;;;;;41.60;23.45;;;24.20;41.50;;;;;;10323553;28;20474;-63
2024/01/16 08:53:54;;;;;;;37.97;23.73;;;24.00;41.90;;;;;;10304029;28;20053;-61
2024/01/16 08:58:57;;;;;;;35.53;22.00;;;24.20;40.70;;;;;;10303308;28;20054;-63
2024/01/16 09:03:58;;;;;;;32.67;21.58;;;24.20;40.20;;;;;;10304743;28;20050;-62
2024/01/16 09:09:00;;;;;;;33.13;22.02;;;23.80;41.00;;;;;;10303225;28;20133;-62
2024/01/16 09:14:03;;;;;;;28.38;20.00;;;24.00;40.60;;;;;;10302132;28;20077;-63
2024/01/16 09:19:05;;;;;;;30.88;18.20;;;23.80;40.60;;;;;;10310997;28;20498;-64
2024/01/16 09:24:07;;;;;;;28.77;18.35;;;23.60;40.70;;;;;;10333326;28;20046;-62
2024/01/16 09:29:10;;;;;;;27.25;17.58;;;24.00;40.10;;;;;;10353540;28;20104;-63
2024/01/16 09:34:13;;;;;;;25.50;17.08;;;24.20;39.50;;;;;;10349298;28;20069;-63
2024/01/16 09:39:16;;;;;;;26.85;16.33;;;23.90;39.80;;;;;;10344220;28;20064;-63
2024/01/16 09:44:19;;;;;;;25.80;16.48;;;24.00;40.10;;;;;;10326841;28;20607;-62
2024/01/16 09:49:20;;;;;;;23.85;13.77;;;24.20;39.50;;;;;;10314547;28;20081;-61
2024/01/16 09:54:22;;;;;;;22.98;13.50;;;24.10;39.20;;;;;;10317934;28;20073;-62
2024/01/16 09:59:25;;;;;;;19.50;13.20;;;24.40;38.80;;;;;;10315450;28;20082;-63
2024/01/16 10:04:27;;;;;;;17.58;11.43;;;24.30;39.30;;;;;;10315026;28;20077;-63
2024/01/16 10:09:29;;;;;;;17.40;11.15;;;24.10;39.00;;;;;;10322301;28;20048;-62
2024/01/16 10:14:32;;;;;;;20.38;11.20;;;24.20;38.90;;;;;;10314997;28;20104;-62
2024/01/16 10:19:34;;;;;;;17.42;10.40;;;24.20;38.80;;;;;;10315495;28;20077;-63
2024/01/16 10:24:36;;;;;;;17.67;10.10;;;24.20;38.50;;;;;;10309306;28;20042;-60
2024/01/16 10:29:39;;;;;;;17.00;9.30;;;24.10;38.40;;;;;;10313852;28;20070;-60
2024/01/16 10:34:40;;;;;;;16.35;9.50;;;24.60;37.40;;;;;;10313079;28;20133;-60
2024/01/16 10:39:42;;;;;;;16.63;10.27;;;24.20;38.30;;;;;;10312842;28;20078;-58
2024/01/16 10:44:55;;;;;;;16.45;9.75;;;24.10;39.50;;;;;;10309134;28;20091;-59
2024/01/16 10:49:57;;;;;;;15.50;9.52;;;24.30;40.00;;;;;;10315009;28;20066;-61
2024/01/16 10:54:58;;;;;;;19.00;10.07;;;24.50;40.30;;;;;;10314301;28;20054;-61
2024/01/16 11:00:06;;;;;;;19.55;9.38;;;24.50;41.40;;;;;;10308989;28;20054;-60
2024/01/16 11:05:08;;;;;;;15.88;8.57;;;24.60;42.80;;;;;;10343663;28;20129;-59
2024/01/16 11:10:10;;;;;;;14.50;7.68;;;24.60;44.60;;;;;;10351783;28;20069;-60
2024/01/16 11:15:13;;;;;;;13.23;7.70;;;24.70;44.60;;;;;;10347973;28;20054;-60
2024/01/16 11:20:15;;;;;;;10.35;7.18;;;24.80;44.30;;;;;;10357590;28;20045;-59
2024/01/16 11:25:18;;;;;;;11.00;6.93;;;24.80;44.30;;;;;;10308783;28;20046;-61
2024/01/16 11:30:30;;;;;;;19.73;6.80;;;24.80;44.60;;;;;;10347154;28;20046;-60
2024/01/16 11:35:33;;;;;;;9.82;6.07;;;24.90;44.30;;;;;;10353017;28;20056;-60
2024/01/16 11:40:34;;;;;;;11.45;5.75;;;24.80;43.40;;;;;;10355620;28;20045;-60
2024/01/16 11:45:53;;;;;;;31.00;17.63;;;24.70;42.80;;;;;;10353340;28;20408;-60
2024/01/16 11:50:55;;;;;;;51.45;30.30;;;24.70;43.00;;;;;;10352196;28;20042;-60
2024/01/16 11:56:03;;;;;;;46.85;30.48;;;24.80;43.20;;;;;;10345384;28;20047;-60
2024/01/16 12:01:07;;;;;;;55.08;32.20;;;24.80;43.20;;;;;;10302777;28;20138;-60
2024/01/16 12:06:09;;;;;;;49.40;30.65;;;24.80;43.60;;;;;;10300966;28;20051;-63
2024/01/16 12:11:10;;;;;;;55.45;29.48;;;24.80;44.40;;;;;;10296015;28;20100;-63
2024/01/16 12:16:13;;;;;;;49.25;28.63;;;24.70;43.60;;;;;;10335075;28;20092;-63
2024/01/16 12:21:15;;;;;;;46.20;29.10;;;24.80;43.10;;;;;;10348262;28;20062;-63
2024/01/16 12:26:21;;;;;;;47.63;27.67;;;24.70;43.90;;;;;;10301241;28;20054;-64
2024/01/16 12:31:24;;;;;;;42.88;26.60;;;24.80;44.20;;;;;;10295631;28;20132;-62
2024/01/16 12:36:26;;;;;;;42.40;26.52;;;24.70;44.50;;;;;;10304886;28;20050;-63
2024/01/16 12:41:29;;;;;;;50.47;29.00;;;24.10;45.70;;;;;;10310716;28;20047;-61
2024/01/16 12:46:33;;;;;;;45.17;29.30;;;24.00;46.80;;;;;;10308588;28;20138;-62
2024/01/16 12:51:34;;;;;;;47.85;29.77;;;23.80;47.20;;;;;;10340461;28;20054;-65
2024/01/16 12:56:36;;;;;;;38.63;26.15;;;24.20;46.90;;;;;;10337567;28;20046;-65
2024/01/16 13:01:43;;;;;;;37.38;24.85;;;24.30;46.50;;;;;;10337398;28;20101;-65
2024/01/16 13:06:46;;;;;;;39.60;24.48;;;24.30;46.40;;;;;;10300449;28;20550;-65
2024/01/16 13:11:51;;;;;;;36.10;24.20;;;24.30;46.40;;;;;;10338501;28;22173;-65
2024/01/16 13:16:56;;;;;;;33.22;22.73;;;24.60;45.70;;;;;;10334403;28;20165;-65
2024/01/16 13:21:57;;;;;;;35.85;21.00;;;24.60;45.40;;;;;;10339323;28;20051;-66
2024/01/16 13:26:59;;;;;;;29.85;19.73;;;24.70;45.60;;;;;;10317966;28;20568;-60
2024/01/16 13:32:02;;;;;;;30.35;18.83;;;24.70;45.50;;;;;;10310384;28;20090;-61
2024/01/16 13:37:04;;;;;;;29.17;18.20;;;24.70;44.80;;;;;;10306630;28;20094;-63
2024/01/16 13:42:06;;;;;;;25.17;16.45;;;24.80;44.80;;;;;;10300820;28;20050;-63
2024/01/16 13:47:09;;;;;;;22.83;14.93;;;24.80;43.80;;;;;;10294891;28;20080;-63
2024/01/16 13:52:11;;;;;;;22.65;15.45;;;24.80;43.20;;;;;;10302279;28;20093;-65
2024/01/16 13:57:12;;;;;;;19.88;14.15;;;24.90;43.50;;;;;;10306354;28;20078;-65
2024/01/16 14:02:15;;;;;;;18.60;13.63;;;24.90;42.50;;;;;;10343158;28;20066;-64
2024/01/16 14:07:17;;;;;;;22.08;13.43;;;24.80;43.00;;;;;;10350255;28;20070;-65
2024/01/16 14:12:19;;;;;;;19.17;12.80;;;24.90;42.70;;;;;;10342758;28;20080;-64
2024/01/16 14:17:22;;;;;;;17.13;12.38;;;24.90;42.50;;;;;;10331724;28;20045;-64
2024/01/16 14:22:24;;;;;;;16.92;12.18;;;24.90;42.50;;;;;;10310186;28;20102;-64
2024/01/16 14:27:25;;;;;;;16.50;11.35;;;25.00;42.10;;;;;;10315742;28;20077;-65
2024/01/16 14:32:28;;;;;;;15.63;11.38;;;25.00;42.00;;;;;;10306010;28;20152;-64
2024/01/16 14:37:31;;;;;;;14.60;11.35;;;25.00;41.90;;;;;;10310206;28;20046;-64
2024/01/16 14:42:34;;;;;;;13.00;10.57;;;25.00;41.70;;;;;;10302278;28;20050;-64
2024/01/16 14:47:37;;;;;;;13.88;10.43;;;24.90;41.70;;;;;;10305380;28;20437;-64
2024/01/16 14:52:40;;;;;;;13.82;10.25;;;24.90;41.70;;;;;;10302680;28;20540;-67
2024/01/16 14:57:42;;;;;;;13.15;10.02;;;24.90;41.70;;;;;;10297513;28;20047;-64
2024/01/16 15:02:46;;;;;;;12.65;9.73;;;24.90;41.60;;;;;;10310095;28;20047;-64
2024/01/16 15:07:48;;;;;;;13.07;9.95;;;24.80;41.80;;;;;;10316110;28;20556;-64
2024/01/16 15:12:50;;;;;;;11.40;9.20;;;24.70;41.70;;;;;;10352099;28;20081;-59
2024/01/16 15:17:53;;;;;;;13.07;8.60;;;24.70;41.80;;;;;;10344998;28;20050;-63
2024/01/16 15:22:55;;;;;;;14.30;9.07;;;24.80;41.30;;;;;;10335895;28;20125;-64
2024/01/16 15:27:58;;;;;;;11.55;8.25;;;24.80;42.30;;;;;;10304556;28;20121;-63
2024/01/16 15:33:01;;;;;;;13.75;8.07;;;25.00;42.30;;;;;;10305791;28;20067;-64
2024/01/16 15:38:03;;;;;;;12.18;7.70;;;24.90;42.70;;;;;;10308120;28;20070;-63
2024/01/16 15:43:05;;;;;;;11.57;8.52;;;25.00;42.40;;;;;;10324972;28;20753;-63
2024/01/16 15:48:08;;;;;;;11.65;8.60;;;25.10;42.80;;;;;;10351277;28;20107;-62
2024/01/16 15:53:11;;;;;;;14.40;7.80;;;25.20;42.00;;;;;;10352971;28;20042;-64
2024/01/16 15:58:13;;;;;;;12.43;7.97;;;25.20;42.00;;;;;;10329398;28;20047;-63
2024/01/16 16:03:16;;;;;;;12.18;7.95;;;25.30;41.80;;;;;;10330411;28;20088;-64
2024/01/16 16:08:18;;;;;;;10.18;7.88;;;25.50;41.60;;;;;;10354931;28;20038;-63
2024/01/16 16:13:19;;;;;;;12.27;8.32;;;25.40;41.80;;;;;;10353860;28;20513;-64
2024/01/16 16:18:23;;;;;;;9.35;7.53;;;25.40;41.80;;;;;;10354659;28;20084;-62
2024/01/16 16:23:24;;;;;;;10.25;7.45;;;25.10;42.20;;;;;;10346073;28;20045;-64
2024/01/16 16:28:26;;;;;;;9.57;7.00;;;25.10;42.30;;;;;;10328914;28;20053;-64
2024/01/16 16:33:29;;;;;;;9.32;7.38;;;25.20;42.40;;;;;;10312074;28;20094;-64
2024/01/16 16:38:31;;;;;;;10.25;7.68;;;25.20;42.50;;;;;;10309614;28;20109;-62
2024/01/16 16:43:32;;;;;;;10.55;6.63;;;25.30;42.10;;;;;;10330433;28;20049;-62
2024/01/16 16:48:35;;;;;;;8.63;6.97;;;25.30;42.00;;;;;;10350109;28;20034;-62
2024/01/16 16:53:39;;;;;;;9.40;6.78;;;25.40;41.90;;;;;;10347247;28;20046;-61
2024/01/16 16:58:42;;;;;;;9.30;6.57;;;25.40;41.80;;;;;;10348503;28;20752;-62
2024/01/16 17:03:46;;;;;;;8.00;6.30;;;25.80;41.00;;;;;;10325383;28;20050;-62
2024/01/16 17:08:47;;;;;;;7.63;6.00;;;25.90;40.70;;;;;;10331308;28;20048;-62
2024/01/16 17:13:49;;;;;;;7.25;6.45;;;25.90;40.60;;;;;;10348801;28;20077;-62
2024/01/16 17:18:52;;;;;;;7.97;6.07;;;25.70;40.80;;;;;;10345248;28;20542;-62
2024/01/16 17:23:54;;;;;;;9.40;6.57;;;25.60;40.90;;;;;;10328342;28;20097;-62
2024/01/16 17:28:55;;;;;;;8.23;6.10;;;25.50;40.70;;;;;;10301113;28;20069;-60
2024/01/16 17:33:58;;;;;;;8.63;5.63;;;25.50;40.90;;;;;;10305396;28;20046;-62
2024/01/16 17:39:00;;;;;;;6.95;5.68;;;25.40;41.00;;;;;;10335804;28;20046;-60
2024/01/16 17:44:02;;;;;;;8.70;6.13;;;25.30;41.20;;;;;;10358432;28;20184;-62
2024/01/16 17:49:05;;;;;;;8.55;5.80;;;25.20;41.50;;;;;;10353638;28;20046;-62
2024/01/16 17:54:06;;;;;;;6.65;5.75;;;25.50;41.00;;;;;;10352756;28;20077;-61
2024/01/16 17:59:08;;;;;;;9.55;5.60;;;25.40;41.20;;;;;;10333134;28;20109;-63
2024/01/16 18:04:13;;;;;;;7.97;6.03;;;25.20;41.70;;;;;;10322818;28;20062;-62
2024/01/16 18:09:15;;;;;;;10.63;5.85;;;24.90;43.20;;;;;;10311772;28;20043;-61
2024/01/16 18:14:17;;;;;;;12.82;6.47;;;24.90;43.30;;;;;;10312115;28;20050;-62
2024/01/16 18:19:21;;;;;;;14.07;5.85;;;24.90;43.10;;;;;;10322367;28;20038;-60
2024/01/16 18:24:23;;;;;;;12.13;6.18;;;25.00;43.70;;;;;;10334417;28;20051;-60
2024/01/16 18:29:24;;;;;;;11.98;6.40;;;25.00;43.80;;;;;;10334399;28;20042;-61
2024/01/16 18:34:28;;;;;;;9.82;5.97;;;25.00;44.30;;;;;;10333830;28;20132;-62
2024/01/16 18:39:29;;;;;;;10.30;7.03;;;25.10;44.20;;;;;;10296516;28;20105;-61
2024/01/16 18:44:31;;;;;;;11.32;7.00;;;25.30;44.50;;;;;;10319690;28;20046;-60
2024/01/16 18:49:34;;;;;;;15.05;7.03;;;25.40;44.30;;;;;;10333486;28;20043;-61
2024/01/16 18:54:36;;;;;;;11.10;6.10;;;25.40;44.80;;;;;;10333315;28;20070;-63
2024/01/16 18:59:37;;;;;;;10.25;4.88;;;25.40;40.20;;;;;;10341847;28;20120;-63
2024/01/16 19:04:46;;;;;;;10.55;4.50;;;25.70;37.00;;;;;;10334066;28;20066;-62
2024/01/16 19:09:48;;;;;;;14.77;4.28;;;25.90;35.40;;;;;;10326474;28;20548;-63
2024/01/16 19:14:49;;;;;;;10.80;4.00;;;25.50;36.40;;;;;;10314841;28;20069;-62
2024/01/16 19:19:52;;;;;;;7.47;4.05;;;25.40;35.90;;;;;;10338723;28;20077;-63
2024/01/16 19:24:54;;;;;;;9.07;4.07;;;25.30;34.80;;;;;;10350375;28;20050;-63
2024/01/16 19:29:56;;;;;;;4.55;3.50;;;25.10;36.60;;;;;;10352324;28;20096;-63
2024/01/16 19:34:59;;;;;;;11.85;3.45;;;25.10;37.40;;;;;;10340295;28;20062;-60
2024/01/16 19:40:00;;;;;;;6.60;3.17;;;25.10;38.00;;;;;;10323523;28;20077;-64
2024/01/16 19:45:02;;;;;;;5.60;3.42;;;25.10;38.10;;;;;;10331650;28;20112;-64
2024/01/16 19:50:09;;;;;;;5.78;3.30;;;25.00;38.00;;;;;;10331327;28;20073;-64
2024/01/16 19:55:11;;;;;;;5.68;3.60;;;25.00;37.90;;;;;;10312505;28;20093;-64
2024/01/16 20:00:14;;;;;;;7.78;3.30;;;24.60;38.50;;;;;;10290817;28;20039;-64
2024/01/16 20:05:17;;;;;;;6.80;3.00;;;24.20;39.30;;;;;;10290621;28;20042;-64
2024/01/16 20:10:19;;;;;;;8.25;3.25;;;24.20;39.40;;;;;;10290229;28;20078;-64
2024/01/16 20:15:21;;;;;;;8.60;3.22;;;24.10;39.40;;;;;;10290027;28;20074;-64
2024/01/16 20:20:24;;;;;;;6.78;2.70;;;24.00;39.30;;;;;;10289960;28;20038;-64
2024/01/16 20:25:28;;;;;;;5.47;2.95;;;23.90;39.50;;;;;;10291327;23;20467;-64
2024/01/16 20:30:30;;;;;;;4.32;2.50;;;23.80;39.50;;;;;;10268661;28;20059;-64
2024/01/16 20:35:33;;;;;;;3.35;2.33;;;23.90;39.40;;;;;;10267876;28;20046;-64
2024/01/16 20:40:36;;;;;;;4.35;2.72;;;23.80;39.50;;;;;;10266566;28;20043;-64
2024/01/16 20:45:37;;;;;;;4.28;2.80;;;23.30;40.90;;;;;;10265091;28;20042;-64
2024/01/16 20:50:41;;;;;;;4.32;2.45;;;23.10;41.40;;;;;;10270317;28;20070;-59
2024/01/16 20:55:43;;;;;;;6.25;3.08;;;23.00;41.70;;;;;;10273280;28;20050;-60
2024/01/16 21:00:45;;;;;;;6.00;2.60;;;22.90;41.70;;;;;;10271294;28;20042;-60
2024/01/16 21:05:48;;;;;;;8.27;2.20;;;23.10;41.30;;;;;;10266897;28;20047;-59
2024/01/16 21:10:50;;;;;;;5.28;2.20;;;22.60;41.70;;;;;;10278856;28;20074;-60
2024/01/16 21:15:51;;;;;;;2.45;1.80;;;22.60;41.70;;;;;;10295392;28;20054;-60
2024/01/16 21:20:55;;;;;;;4.47;2.00;;;22.60;41.40;;;;;;10289979;28;20051;-60
2024/01/16 21:25:56;;;;;;;3.58;2.00;;;22.80;40.80;;;;;;10287872;28;20089;-60
2024/01/16 21:30:58;;;;;;;3.47;1.92;;;22.70;40.90;;;;;;10284799;28;20046;-60
2024/01/16 21:36:02;;;;;;;8.38;1.95;;;22.80;40.50;;;;;;10298816;28;20078;-59
2024/01/16 21:41:06;;;;;;;3.80;2.10;;;22.80;40.30;;;;;;10293948;28;20063;-59
2024/01/16 21:46:08;;;;;;;2.63;2.00;;;22.70;40.20;;;;;;10290912;28;20101;-60
2024/01/16 21:51:11;;;;;;;5.85;1.98;;;22.50;40.40;;;;;;10282066;28;20059;-63
2024/01/16 21:56:13;;;;;;;2.80;1.75;;;22.40;40.60;;;;;;10265435;28;20061;-62
2024/01/16 22:01:15;;;;;;;3.03;2.00;;;22.30;40.50;;;;;;10278560;28;20101;-63
2024/01/16 22:06:18;;;;;;;3.67;2.00;;;22.10;40.60;;;;;;10286688;28;20070;-63
2024/01/16 22:11:20;;;;;;;3.40;1.70;;;21.90;41.00;;;;;;10286898;28;20051;-64
2024/01/16 22:16:21;;;;;;;3.15;1.70;;;21.90;40.90;;;;;;10278961;28;20055;-63
2024/01/16 22:21:24;;;;;;;4.07;1.88;;;21.60;41.20;;;;;;10270551;28;20684;-63
2024/01/16 22:26:26;;;;;;;2.55;1.73;;;21.80;41.70;;;;;;10270160;28;20059;-63
2024/01/16 22:31:28;;;;;;;5.88;1.88;;;21.60;42.60;;;;;;10277662;28;20198;-63
2024/01/16 22:36:31;;;;;;;3.05;2.03;;;21.40;43.20;;;;;;10269828;28;20098;-63
2024/01/16 22:41:34;;;;;;;2.60;1.90;;;21.30;43.30;;;;;;10283195;28;20098;-65
2024/01/16 22:46:35;;;;;;;3.03;1.80;;;21.10;44.50;;;;;;10280718;28;20134;-64
2024/01/16 22:51:38;;;;;;;2.50;1.63;;;21.30;44.40;;;;;;10284264;28;20053;-64
2024/01/16 22:56:40;;;;;;;4.50;1.65;;;21.40;44.20;;;;;;10277814;28;20118;-64
2024/01/16 23:01:43;;;;;;;2.58;1.85;;;21.30;44.00;;;;;;10278425;28;20094;-64
2024/01/16 23:06:46;;;;;;;4.10;1.70;;;21.50;43.60;;;;;;10283972;28;20053;-64
2024/01/16 23:11:48;;;;;;;2.22;1.73;;;21.50;43.30;;;;;;10274588;28;20102;-64
2024/01/16 23:16:50;;;;;;;2.00;1.60;;;21.60;42.90;;;;;;10278774;28;20094;-64
2024/01/16 23:21:53;;;;;;;2.78;1.80;;;21.50;42.80;;;;;;10277547;28;20050;-64
2024/01/16 23:26:54;;;;;;;2.15;1.70;;;21.50;42.60;;;;;;10274177;28;20079;-64
2024/01/16 23:31:56;;;;;;;2.40;1.60;;;21.50;42.40;;;;;;10275256;28;20490;-64
2024/01/16 23:36:59;;;;;;;2.17;1.60;;;21.50;42.10;;;;;;10281251;28;20082;-64
2024/01/16 23:42:01;;;;;;;2.63;1.50;;;21.60;42.10;;;;;;10279824;28;20121;-64
2024/01/16 23:47:02;;;;;;;2.58;1.60;;;21.60;41.80;;;;;;10274179;28;20619;-64
2024/01/16 23:52:06;;;;;;;3.22;1.75;;;21.70;41.60;;;;;;10276948;28;20066;-64
2024/01/16 23:57:08;;;;;;;2.95;1.48;;;21.70;41.60;;;;;;10276899;28;20074;-64
